TimeMDT,TemperatureF,Dew PointF,Humidity,Sea Level PressureIn,VisibilityMPH,Wind Direction,Wind SpeedMPH,Gust SpeedMPH,PrecipitationIn,Events,Conditions,WindDirDegrees,DateUTC
12:56 AM,60.1,45.0,57,29.60,10.0,South,13.8,-,N/A,,Clear,180,2013-09-18 06:56:00
1:56 AM,55.9,44.1,64,29.63,10.0,SW,4.6,-,N/A,,Clear,220,2013-09-18 07:56:00
2:56 AM,59.0,44.1,58,29.64,10.0,SW,15.0,-,N/A,,Clear,220,2013-09-18 08:56:00
3:56 AM,55.0,44.1,67,29.65,10.0,SSW,10.4,-,N/A,,Clear,200,2013-09-18 09:56:00
4:56 AM,54.0,44.1,69,29.67,10.0,Calm,Calm,-,N/A,,Clear,0,2013-09-18 10:56:00
5:56 AM,50.0,44.1,80,29.70,10.0,NNE,3.5,-,N/A,,Clear,20,2013-09-18 11:56:00
6:56 AM,50.0,44.1,80,29.73,10.0,Calm,Calm,-,N/A,,Scattered Clouds,0,2013-09-18 12:56:00
7:56 AM,55.9,39.0,53,29.72,10.0,SSW,15.0,-,N/A,,Partly Cloudy,210,2013-09-18 13:56:00
8:56 AM,55.9,39.0,53,29.74,10.0,SSW,13.8,-,N/A,,Mostly Cloudy,200,2013-09-18 14:56:00
9:56 AM,53.1,43.0,69,29.81,10.0,NW,12.7,-,N/A,,Overcast,310,2013-09-18 15:56:00
10:56 AM,53.1,42.1,66,29.81,10.0,NW,9.2,-,N/A,,Overcast,320,2013-09-18 16:56:00
11:56 AM,55.9,42.1,60,29.82,10.0,West,8.1,-,N/A,,Mostly Cloudy,260,2013-09-18 17:56:00
12:56 PM,55.9,39.0,53,29.83,10.0,WNW,6.9,-,N/A,,Overcast,290,2013-09-18 18:56:00
1:56 PM,57.0,37.0,47,29.85,10.0,NW,11.5,-,N/A,,Mostly Cloudy,310,2013-09-18 19:56:00
2:56 PM,57.0,36.0,45,29.86,10.0,WNW,15.0,19.6,N/A,,Overcast,290,2013-09-18 20:56:00
3:56 PM,55.9,35.1,45,29.90,10.0,WNW,17.3,-,N/A,,Mostly Cloudy,300,2013-09-18 21:56:00
4:56 PM,55.0,35.1,47,29.93,10.0,WNW,12.7,23.0,N/A,,Mostly Cloudy,300,2013-09-18 22:56:00
5:56 PM,53.1,33.1,47,29.99,10.0,NW,16.1,-,N/A,,Overcast,310,2013-09-18 23:56:00
6:56 PM,48.9,34.0,56,30.03,10.0,NW,17.3,25.3,N/A,,Overcast,310,2013-09-19 00:56:00
7:56 PM,46.9,35.1,63,30.06,10.0,WNW,11.5,21.9,N/A,,Overcast,290,2013-09-19 01:56:00
8:56 PM,45.0,35.1,68,30.12,10.0,WNW,9.2,-,N/A,,Overcast,300,2013-09-19 02:56:00
9:56 PM,43.0,36.0,76,30.16,10.0,WNW,8.1,-,0.00,Rain,Light Rain,290,2013-09-19 03:56:00
10:56 PM,43.0,37.0,80,30.18,10.0,West,8.1,-,0.01,,Overcast,280,2013-09-19 04:56:00
11:56 PM,43.0,36.0,76,30.18,10.0,WSW,3.5,-,0.00,Rain,Light Rain,240,2013-09-19 05:56:00